CPX713 Details

Departure: Incheon International Airport (RKSI)
Arrival: Tokyo-Narita International Airport (RJAA) at N/A
Route: SEL1S SEL G597 KAE Y437 TENAS L512 GTC Y303 KAMOH Y301 SHELY Y30 MELON NORMA
Notes:


Current Weather Information
RKSI 171630Z 26005KT 230V300 CAVOK 24/18 Q1004 NOSIG
RJAA 171630Z VRB01KT 7000 FEW030 25/24 Q1004 NOSIG RMK 1CU030 A2967